Time;durP1;ratioP1;P1;durP2;ratioP2;P2;SDS_P1;SDS_P2;PMS_P1;PMS_P2;Temp;Humidity;BMP_temperature;BMP_pressure;BME280_temperature;BME280_humidity;BME280_pressure;Samples;Min_cycle;Max_cycle;Signal;HPM_P1;HPM_P2
2022/10/23 00:04:50;;;;;;;5.50;5.10;;;14.40;99.90;;;;;;10389105;28;20217;-80
2022/10/23 00:09:54;;;;;;;6.93;4.90;;;14.40;99.90;;;;;;10386297;28;20214;-79
2022/10/23 00:14:56;;;;;;;8.53;5.90;;;14.30;99.90;;;;;;10409573;23;20249;-80
2022/10/23 00:19:58;;;;;;;6.60;5.50;;;14.30;99.90;;;;;;10392666;28;20731;-79
2022/10/23 00:25:01;;;;;;;8.70;5.60;;;14.30;99.90;;;;;;10390802;28;20238;-80
2022/10/23 00:30:05;;;;;;;9.03;6.07;;;14.20;99.90;;;;;;10392158;28;20199;-80
2022/10/23 00:35:07;;;;;;;7.87;5.40;;;14.20;99.90;;;;;;10389033;28;20222;-79
2022/10/23 00:40:12;;;;;;;5.83;5.43;;;14.20;99.90;;;;;;10391167;28;20198;-79
2022/10/23 00:45:21;;;;;;;5.93;5.40;;;14.20;99.90;;;;;;10388144;28;20207;-80
2022/10/23 00:50:25;;;;;;;6.10;5.70;;;14.10;99.90;;;;;;10380021;28;20277;-80
2022/10/23 00:55:30;;;;;;;6.10;5.70;;;14.10;99.90;;;;;;10382480;28;20582;-80
2022/10/23 01:00:42;;;;;;;7.57;5.77;;;14.10;99.90;;;;;;10378329;28;20827;-81
2022/10/23 01:05:53;;;;;;;6.53;5.63;;;14.00;99.90;;;;;;10362477;28;20223;-80
2022/10/23 01:11:03;;;;;;;6.10;5.50;;;14.00;99.90;;;;;;10383561;28;20193;-80
2022/10/23 01:16:10;;;;;;;6.73;5.60;;;14.00;99.90;;;;;;10382675;28;20215;-80
2022/10/23 01:21:16;;;;;;;7.90;6.13;;;14.00;99.90;;;;;;10381924;28;20194;-83
2022/10/23 01:26:34;;;;;;;6.17;5.67;;;14.00;99.90;;;;;;10380475;28;20309;-81
2022/10/23 01:31:43;;;;;;;6.73;6.10;;;14.00;99.90;;;;;;10363736;28;20288;-81
2022/10/23 01:36:49;;;;;;;8.23;6.07;;;13.90;99.90;;;;;;10381277;28;20254;-81
2022/10/23 01:41:55;;;;;;;6.83;5.97;;;13.90;99.90;;;;;;10380621;28;20195;-79
2022/10/23 01:47:09;;;;;;;6.70;5.87;;;13.90;99.90;;;;;;10363138;28;20214;-80
2022/10/23 01:52:24;;;;;;;6.67;5.77;;;13.90;99.90;;;;;;10378559;28;20545;-81
2022/10/23 01:57:31;;;;;;;11.27;6.10;;;13.90;99.90;;;;;;10362645;28;20246;-80
2022/10/23 02:02:37;;;;;;;8.47;6.00;;;13.90;99.90;;;;;;10363063;28;20252;-81
2022/10/23 02:07:40;;;;;;;7.30;5.97;;;13.90;99.90;;;;;;10379443;28;20305;-81
2022/10/23 02:12:50;;;;;;;6.83;6.13;;;13.90;99.90;;;;;;10379368;28;20206;-80
2022/10/23 02:18:02;;;;;;;9.70;5.43;;;13.80;99.90;;;;;;10379175;28;20222;-81
2022/10/23 02:23:15;;;;;;;9.17;5.90;;;13.80;99.90;;;;;;10379899;28;20567;-80
2022/10/23 02:28:23;;;;;;;9.83;5.43;;;13.80;99.90;;;;;;10368691;28;20235;-80
2022/10/23 02:33:33;;;;;;;9.43;5.50;;;13.80;99.90;;;;;;10385391;28;20209;-80
2022/10/23 02:38:39;;;;;;;7.30;5.20;;;13.70;99.90;;;;;;10384129;28;20218;-80
2022/10/23 02:43:47;;;;;;;5.70;4.80;;;13.80;99.90;;;;;;10399984;28;20194;-80
2022/10/23 02:48:58;;;;;;;5.67;5.20;;;13.80;99.90;;;;;;10383925;28;20219;-80
2022/10/23 02:54:06;;;;;;;5.93;5.00;;;13.80;99.90;;;;;;10385242;28;20241;-80
2022/10/23 02:59:16;;;;;;;5.47;5.13;;;13.80;99.90;;;;;;10383400;28;20205;-80
2022/10/23 03:04:21;;;;;;;5.83;5.33;;;13.80;99.90;;;;;;10383560;28;20203;-79
2022/10/23 03:09:25;;;;;;;5.87;5.40;;;13.90;99.90;;;;;;10380787;28;20219;-81
2022/10/23 03:14:27;;;;;;;4.93;4.40;;;13.90;99.90;;;;;;10379045;28;20242;-81
2022/10/23 03:19:31;;;;;;;5.60;5.13;;;13.90;99.90;;;;;;10363044;28;20229;-80
2022/10/23 03:24:34;;;;;;;6.13;5.20;;;13.90;99.90;;;;;;10386029;28;20238;-81
2022/10/23 03:29:36;;;;;;;6.20;5.30;;;13.90;99.90;;;;;;10377419;28;20741;-81
2022/10/23 03:34:39;;;;;;;9.23;5.30;;;13.90;99.90;;;;;;10376489;28;20229;-81
2022/10/23 03:39:44;;;;;;;5.53;5.00;;;13.90;99.90;;;;;;10376337;28;20190;-81
2022/10/23 03:44:46;;;;;;;6.63;4.70;;;13.90;99.90;;;;;;10376007;28;20223;-81
2022/10/23 03:49:50;;;;;;;4.73;4.43;;;13.80;99.90;;;;;;10375489;28;20624;-81
2022/10/23 03:54:52;;;;;;;7.40;5.07;;;13.90;99.90;;;;;;10376817;28;20218;-80
2022/10/23 03:59:54;;;;;;;5.83;5.40;;;13.90;99.90;;;;;;10379764;28;20217;-80
2022/10/23 04:04:57;;;;;;;5.40;4.90;;;13.90;99.90;;;;;;10366102;28;20613;-79
2022/10/23 04:09:59;;;;;;;7.00;6.30;;;13.90;99.90;;;;;;10382442;28;20218;-80
2022/10/23 04:15:01;;;;;;;7.00;6.40;;;14.00;99.90;;;;;;10385720;28;20226;-81
2022/10/23 04:20:05;;;;;;;15.33;10.60;;;14.00;99.90;;;;;;10390788;28;20274;-79
2022/10/23 04:25:08;;;;;;;12.70;11.50;;;14.00;99.90;;;;;;10390763;28;20215;-80
2022/10/23 04:30:11;;;;;;;10.50;9.70;;;13.90;99.90;;;;;;10374744;28;20587;-80
2022/10/23 04:35:15;;;;;;;12.27;11.07;;;13.90;99.90;;;;;;10390922;28;20301;-80
2022/10/23 04:40:18;;;;;;;6.60;6.00;;;13.90;99.90;;;;;;10391365;28;20190;-80
2022/10/23 04:45:20;;;;;;;7.53;6.33;;;13.90;99.90;;;;;;10390240;28;20294;-81
2022/10/23 04:50:24;;;;;;;9.47;7.63;;;13.90;99.90;;;;;;10403206;28;20221;-79
2022/10/23 04:55:51;;;;;;;8.13;7.37;;;13.90;99.90;;;;;;10389784;28;20210;-80
2022/10/23 05:01:09;;;;;;;8.13;7.33;;;14.00;99.90;;;;;;10388470;28;20221;-80
2022/10/23 05:06:13;;;;;;;8.90;8.07;;;14.00;99.90;;;;;;10384746;28;20225;-80
2022/10/23 05:11:21;;;;;;;8.67;7.00;;;14.10;99.90;;;;;;10384621;28;20233;-80
2022/10/23 05:16:36;;;;;;;6.40;5.80;;;14.10;99.90;;;;;;10382566;28;20222;-80
2022/10/23 05:21:41;;;;;;;7.87;7.10;;;14.10;99.90;;;;;;10368714;28;20654;-82
2022/10/23 05:26:43;;;;;;;6.90;6.37;;;14.20;99.90;;;;;;10385164;28;20634;-79
2022/10/23 05:31:46;;;;;;;7.87;6.30;;;14.10;99.90;;;;;;10390055;28;20198;-79
2022/10/23 05:36:51;;;;;;;6.97;6.40;;;14.10;99.90;;;;;;10385982;28;20242;-79
2022/10/23 05:41:55;;;;;;;6.93;6.30;;;14.20;99.90;;;;;;10401329;28;20222;-79
2022/10/23 05:46:59;;;;;;;6.60;6.20;;;14.20;99.90;;;;;;10385478;28;20214;-79
2022/10/23 05:52:23;;;;;;;8.40;7.70;;;14.20;99.90;;;;;;10391491;28;20203;-79
2022/10/23 05:58:02;;;;;;;9.07;7.17;;;14.10;99.90;;;;;;10396826;28;20694;-79
2022/10/23 06:03:23;;;;;;;7.80;7.17;;;14.10;99.90;;;;;;10371233;28;20289;-80
2022/10/23 06:08:27;;;;;;;7.13;6.50;;;14.10;99.90;;;;;;10321424;28;20591;-81
2022/10/23 06:13:29;;;;;;;7.27;5.47;;;14.00;99.90;;;;;;10336165;28;20195;-80
2022/10/23 06:18:31;;;;;;;9.33;6.17;;;14.10;99.90;;;;;;10364311;28;20218;-80
2022/10/23 06:23:42;;;;;;;9.30;5.67;;;14.10;99.90;;;;;;10385190;28;20190;-79
2022/10/23 06:29:00;;;;;;;6.50;5.53;;;14.20;99.90;;;;;;10379378;28;20264;-80
2022/10/23 06:34:02;;;;;;;6.13;5.73;;;14.20;99.90;;;;;;10363338;28;20195;-79
2022/10/23 06:39:09;;;;;;;6.53;6.03;;;14.30;99.90;;;;;;10380530;28;20198;-78
2022/10/23 06:44:39;;;;;;;5.97;5.37;;;14.30;99.90;;;;;;10368128;28;20310;-79
2022/10/23 06:49:45;;;;;;;5.70;5.10;;;14.40;99.90;;;;;;10382976;28;20306;-80
2022/10/23 06:54:49;;;;;;;7.40;5.43;;;14.40;99.90;;;;;;10382509;28;20413;-79
2022/10/23 06:59:59;;;;;;;5.60;5.20;;;14.40;99.90;;;;;;10377818;28;20671;-81
2022/10/23 07:05:02;;;;;;;7.80;5.20;;;14.50;99.90;;;;;;10395643;28;20293;-81
2022/10/23 07:10:07;;;;;;;5.50;5.00;;;14.50;99.90;;;;;;10366573;28;20245;-81
2022/10/23 07:15:16;;;;;;;5.73;5.23;;;14.60;99.90;;;;;;10363522;28;20260;-79
2022/10/23 07:20:18;;;;;;;6.40;5.10;;;14.70;99.90;;;;;;10363398;28;20253;-79
2022/10/23 07:25:26;;;;;;;6.13;5.70;;;14.80;99.90;;;;;;10364298;28;20222;-79
2022/10/23 07:30:28;;;;;;;5.60;5.20;;;14.80;99.90;;;;;;10379514;28;20215;-81
2022/10/23 07:35:31;;;;;;;7.73;4.57;;;14.90;99.90;;;;;;10378221;28;20226;-79
2022/10/23 07:40:41;;;;;;;5.57;5.17;;;14.90;99.90;;;;;;10389151;28;20187;-79
2022/10/23 07:45:47;;;;;;;4.90;4.60;;;15.00;99.90;;;;;;10380153;28;20578;-80
2022/10/23 07:51:00;;;;;;;5.83;4.40;;;15.10;99.90;;;;;;10387601;28;20237;-80
2022/10/23 07:56:10;;;;;;;5.43;4.93;;;15.20;99.90;;;;;;10367715;28;20222;-79
2022/10/23 08:01:34;;;;;;;5.50;5.20;;;15.30;99.90;;;;;;10383794;28;20248;-80
2022/10/23 08:06:37;;;;;;;6.10;4.70;;;15.40;99.90;;;;;;10386150;28;20222;-79
2022/10/23 08:11:41;;;;;;;5.83;4.90;;;15.50;99.90;;;;;;10385553;28;20293;-79
2022/10/23 08:16:44;;;;;;;4.97;4.67;;;15.50;99.90;;;;;;10385719;28;20233;-79
2022/10/23 08:22:09;;;;;;;5.20;4.83;;;15.60;99.90;;;;;;10381625;28;20202;-79
2022/10/23 08:27:13;;;;;;;5.40;5.10;;;15.60;99.90;;;;;;10386162;28;20289;-79
2022/10/23 08:32:20;;;;;;;6.13;5.53;;;15.70;99.90;;;;;;10388749;28;20202;-79
2022/10/23 08:37:34;;;;;;;7.77;7.10;;;15.70;99.90;;;;;;10383568;28;20261;-79
2022/10/23 08:42:39;;;;;;;7.00;6.10;;;15.80;99.90;;;;;;10365705;28;20190;-79
2022/10/23 08:47:45;;;;;;;8.40;5.80;;;15.90;99.90;;;;;;10366573;28;20686;-80
2022/10/23 08:53:15;;;;;;;6.90;6.40;;;16.00;99.90;;;;;;10385174;28;20202;-80
2022/10/23 08:58:24;;;;;;;7.10;6.60;;;16.00;99.90;;;;;;10388190;28;20289;-80
2022/10/23 09:03:27;;;;;;;6.60;6.20;;;16.00;99.90;;;;;;10384559;28;20195;-81
2022/10/23 09:08:39;;;;;;;8.40;7.80;;;16.10;99.90;;;;;;10385261;28;20237;-80
2022/10/23 09:14:01;;;;;;;7.47;6.87;;;16.10;99.90;;;;;;10383015;28;20211;-80
2022/10/23 09:19:09;;;;;;;8.00;7.33;;;16.10;99.90;;;;;;10381394;28;20312;-80
2022/10/23 09:24:16;;;;;;;7.80;7.30;;;16.10;99.90;;;;;;10381085;28;20225;-80
2022/10/23 09:29:23;;;;;;;8.43;7.63;;;16.10;99.90;;;;;;10381716;28;20221;-80
2022/10/23 09:34:27;;;;;;;6.30;5.90;;;16.20;99.90;;;;;;10380294;28;20272;-80
2022/10/23 09:39:31;;;;;;;6.77;6.17;;;16.20;99.90;;;;;;10382004;28;20287;-80
2022/10/23 09:44:35;;;;;;;6.27;5.83;;;16.20;99.90;;;;;;10408104;28;20222;-80
2022/10/23 09:49:40;;;;;;;5.93;5.43;;;16.30;99.90;;;;;;10372063;28;20317;-80
2022/10/23 09:54:46;;;;;;;5.20;4.90;;;16.30;99.90;;;;;;10402361;28;20717;-80
2022/10/23 09:59:53;;;;;;;4.80;4.50;;;16.40;99.90;;;;;;10381686;28;20202;-80
2022/10/23 10:04:55;;;;;;;6.37;5.40;;;16.50;99.90;;;;;;10386965;28;20232;-80
2022/10/23 10:09:58;;;;;;;5.43;5.03;;;16.50;99.90;;;;;;10397659;28;20571;-80
2022/10/23 10:15:17;;;;;;;4.60;4.20;;;16.60;99.90;;;;;;10393906;28;20232;-80
2022/10/23 10:20:43;;;;;;;7.47;6.97;;;16.70;99.90;;;;;;10384398;28;20198;-80
2022/10/23 10:25:54;;;;;;;5.83;5.23;;;16.70;99.90;;;;;;10410170;28;20217;-80
2022/10/23 10:31:08;;;;;;;5.40;5.00;;;16.80;99.90;;;;;;10384342;28;20725;-80
2022/10/23 10:36:25;;;;;;;5.90;5.30;;;16.90;99.90;;;;;;10383503;28;20224;-80
2022/10/23 10:41:42;;;;;;;4.60;4.30;;;17.00;99.90;;;;;;10387208;28;20201;-80
2022/10/23 10:46:56;;;;;;;4.33;3.80;;;17.20;99.90;;;;;;10382679;28;20218;-81
2022/10/23 10:52:06;;;;;;;4.13;3.70;;;17.30;99.90;;;;;;10389902;28;20486;-81
2022/10/23 10:57:20;;;;;;;5.00;4.70;;;17.40;99.90;;;;;;10387936;28;20219;-81
2022/10/23 11:02:28;;;;;;;4.83;4.00;;;17.40;99.90;;;;;;10380432;28;20735;-81
2022/10/23 11:07:36;;;;;;;4.90;4.50;;;17.50;99.90;;;;;;10402547;28;20599;-81
2022/10/23 11:12:39;;;;;;;4.30;4.10;;;17.60;99.90;;;;;;10394101;28;20194;-81
2022/10/23 11:17:47;;;;;;;4.10;3.80;;;17.80;99.90;;;;;;10402085;28;20312;-80
2022/10/23 11:22:54;;;;;;;6.00;5.40;;;17.90;99.90;;;;;;10411138;28;20249;-80
2022/10/23 11:28:11;;;;;;;6.00;5.50;;;18.10;99.90;;;;;;10392784;28;20225;-80
2022/10/23 11:34:01;;;;;;;3.93;3.73;;;18.20;99.90;;;;;;10403564;28;20201;-80
2022/10/23 11:39:18;;;;;;;4.20;3.90;;;18.30;99.90;;;;;;10388366;28;20218;-80
2022/10/23 11:44:26;;;;;;;5.60;5.10;;;18.30;99.90;;;;;;10379215;28;20206;-81
2022/10/23 11:49:32;;;;;;;7.87;4.93;;;18.40;99.90;;;;;;10382311;28;20218;-79
2022/10/23 11:54:34;;;;;;;5.00;4.50;;;18.40;99.90;;;;;;10384274;28;20221;-79
2022/10/23 11:59:50;;;;;;;6.33;5.83;;;18.50;99.90;;;;;;10386043;28;20715;-79
2022/10/23 12:04:55;;;;;;;6.70;6.10;;;18.50;99.90;;;;;;10411777;28;20743;-80
2022/10/23 12:09:59;;;;;;;5.23;4.90;;;18.60;99.90;;;;;;10401632;28;20706;-81
2022/10/23 12:15:18;;;;;;;6.60;6.00;;;18.60;99.90;;;;;;10386603;23;20280;-79
2022/10/23 12:20:30;;;;;;;7.33;6.60;;;18.70;99.90;;;;;;10403914;28;20197;-79
2022/10/23 12:25:39;;;;;;;5.83;5.43;;;18.70;99.90;;;;;;10389093;28;20308;-78
2022/10/23 12:30:46;;;;;;;5.73;5.33;;;18.70;99.90;;;;;;10385164;28;20210;-79
2022/10/23 12:36:22;;;;;;;5.83;5.47;;;18.70;99.90;;;;;;10356266;28;20216;-79
2022/10/23 12:41:27;;;;;;;5.70;5.20;;;18.70;99.90;;;;;;10370176;28;20624;-79
2022/10/23 12:46:34;;;;;;;5.60;5.27;;;18.70;99.90;;;;;;10372129;28;20702;-78
2022/10/23 12:51:37;;;;;;;6.60;6.00;;;18.70;99.90;;;;;;10374357;28;20218;-78
2022/10/23 12:56:40;;;;;;;5.70;5.20;;;18.80;99.90;;;;;;10373363;28;20222;-80
2022/10/23 13:01:42;;;;;;;5.47;5.07;;;18.80;99.90;;;;;;10372396;28;20199;-80
2022/10/23 13:06:47;;;;;;;6.83;6.40;;;18.80;99.90;;;;;;10374671;28;20223;-80
2022/10/23 13:11:51;;;;;;;5.00;4.70;;;18.80;99.90;;;;;;10355683;28;20336;-78
2022/10/23 13:16:59;;;;;;;4.93;4.50;;;18.70;99.90;;;;;;10382344;28;20249;-79
2022/10/23 13:22:06;;;;;;;5.40;5.10;;;18.70;99.90;;;;;;10371903;28;20245;-78
2022/10/23 13:27:25;;;;;;;5.50;5.10;;;18.60;99.90;;;;;;10373308;28;20234;-79
2022/10/23 13:32:30;;;;;;;5.80;4.70;;;18.60;99.90;;;;;;10372225;28;20225;-79
2022/10/23 13:37:33;;;;;;;6.43;5.33;;;18.60;99.90;;;;;;10364909;28;20273;-79
2022/10/23 13:42:35;;;;;;;5.47;5.07;;;18.50;99.90;;;;;;10377911;28;20249;-79
2022/10/23 13:47:37;;;;;;;5.70;5.30;;;18.40;99.90;;;;;;10368288;28;20230;-79
2022/10/23 13:52:41;;;;;;;6.07;4.90;;;18.40;99.90;;;;;;10379561;28;20222;-80
2022/10/23 13:57:50;;;;;;;8.93;5.57;;;18.50;99.90;;;;;;10623824;27;20673;-81
2022/10/23 14:02:52;;;;;;;6.90;4.60;;;18.70;99.90;;;;;;10598936;27;20229;-81
2022/10/23 14:07:54;;;;;;;5.50;5.00;;;18.90;99.90;;;;;;10605814;27;20872;-81
2022/10/23 14:12:58;;;;;;;5.00;4.50;;;19.00;99.90;;;;;;10595176;28;20244;-81
2022/10/23 14:18:00;;;;;;;4.90;4.50;;;19.10;99.90;;;;;;10613872;28;20218;-81
2022/10/23 14:23:02;;;;;;;5.30;4.90;;;19.20;99.90;;;;;;10595762;28;20207;-80
2022/10/23 14:28:05;;;;;;;7.27;4.40;;;19.20;99.90;;;;;;10613535;28;20777;-81
2022/10/23 14:33:07;;;;;;;8.67;5.33;;;19.20;99.90;;;;;;10611617;28;20199;-81
2022/10/23 14:38:09;;;;;;;7.93;5.10;;;19.20;99.90;;;;;;10614595;28;20310;-81
2022/10/23 14:43:13;;;;;;;6.73;6.00;;;19.20;99.90;;;;;;10616323;28;20589;-81
2022/10/23 14:48:15;;;;;;;6.73;5.77;;;19.10;99.90;;;;;;10614416;28;20643;-82
2022/10/23 14:53:17;;;;;;;6.10;5.50;;;19.20;99.90;;;;;;10596582;28;20233;-81
2022/10/23 14:58:23;;;;;;;6.80;6.20;;;19.10;99.90;;;;;;10611946;28;20325;-81
2022/10/23 15:03:26;;;;;;;5.93;5.33;;;19.00;99.90;;;;;;10615063;28;20198;-81
2022/10/23 15:08:28;;;;;;;5.80;5.30;;;18.90;99.90;;;;;;10591118;28;20233;-81
2022/10/23 15:13:33;;;;;;;7.33;5.27;;;18.90;99.90;;;;;;10584852;28;20221;-81
2022/10/23 15:18:36;;;;;;;8.80;6.20;;;18.90;99.90;;;;;;10582639;28;20219;-81
2022/10/23 15:23:41;;;;;;;9.93;6.13;;;18.90;99.90;;;;;;10584411;28;20199;-81
2022/10/23 15:28:45;;;;;;;7.27;5.47;;;18.90;99.90;;;;;;10566452;28;20215;-81
2022/10/23 15:33:47;;;;;;;6.07;5.53;;;18.90;99.90;;;;;;10585974;28;20215;-81
2022/10/23 15:38:49;;;;;;;5.10;4.70;;;18.90;99.90;;;;;;10592962;28;20749;-81
2022/10/23 15:43:53;;;;;;;6.37;5.07;;;18.80;99.90;;;;;;10592684;28;20191;-81
2022/10/23 15:48:55;;;;;;;5.37;4.87;;;18.70;99.90;;;;;;10571796;28;20215;-81
2022/10/23 15:53:58;;;;;;;5.00;4.70;;;18.60;99.90;;;;;;10569507;28;20268;-81
2022/10/23 15:59:01;;;;;;;6.27;5.10;;;18.60;99.90;;;;;;10585303;28;20776;-81
2022/10/23 16:04:03;;;;;;;6.40;5.50;;;18.50;99.90;;;;;;10585568;28;20199;-81
2022/10/23 16:09:06;;;;;;;5.70;5.20;;;18.40;99.90;;;;;;10586426;28;20218;-81
2022/10/23 16:14:12;;;;;;;5.37;4.83;;;18.40;99.90;;;;;;10587796;28;20215;-81
2022/10/23 16:19:14;;;;;;;7.03;6.23;;;18.40;99.90;;;;;;10586108;28;20306;-81
2022/10/23 16:24:16;;;;;;;14.33;6.07;;;18.30;99.90;;;;;;10572340;28;20211;-82
2022/10/23 16:29:20;;;;;;;6.57;5.93;;;18.20;99.90;;;;;;10581470;28;20214;-81
2022/10/23 16:34:24;;;;;;;7.10;6.37;;;18.20;99.90;;;;;;10582970;28;20218;-81
2022/10/23 16:39:27;;;;;;;5.70;5.30;;;18.10;99.90;;;;;;10580706;28;20664;-81
2022/10/23 16:44:49;;;;;;;5.87;5.47;;;18.00;99.90;;;;;;10580421;28;20195;-81
2022/10/23 16:49:51;;;;;;;6.80;5.13;;;18.00;99.90;;;;;;10581281;28;20226;-81
2022/10/23 16:54:53;;;;;;;5.17;4.67;;;18.00;99.90;;;;;;10577848;28;20577;-81
2022/10/23 16:59:57;;;;;;;5.20;4.80;;;18.00;99.90;;;;;;10578854;28;20716;-81
2022/10/23 17:04:59;;;;;;;6.77;6.20;;;18.10;99.90;;;;;;10576409;28;20219;-81
2022/10/23 17:10:01;;;;;;;7.30;6.80;;;18.10;99.90;;;;;;10599601;27;20211;-81
2022/10/23 17:15:06;;;;;;;8.73;7.90;;;18.00;99.90;;;;;;10585652;28;20710;-81
2022/10/23 17:20:09;;;;;;;12.43;5.70;;;18.00;99.90;;;;;;10585949;28;20718;-81
2022/10/23 17:25:11;;;;;;;7.73;7.07;;;18.00;99.90;;;;;;10585212;28;20679;-81
2022/10/23 17:30:14;;;;;;;6.80;6.13;;;18.00;99.90;;;;;;10564947;28;20570;-81
2022/10/23 17:35:17;;;;;;;8.83;8.03;;;17.90;99.90;;;;;;10583638;28;20227;-81
2022/10/23 17:40:19;;;;;;;11.80;7.70;;;18.00;99.90;;;;;;10587269;27;20829;-81
2022/10/23 17:45:22;;;;;;;7.80;6.87;;;17.90;99.90;;;;;;10583451;28;20690;-81
2022/10/23 17:50:25;;;;;;;9.60;5.90;;;18.00;99.90;;;;;;10560815;28;20244;-80
2022/10/23 17:55:27;;;;;;;8.93;8.03;;;18.00;99.90;;;;;;10586106;28;20226;-80
2022/10/23 18:00:30;;;;;;;7.33;5.73;;;18.10;99.90;;;;;;10582929;28;20633;-81
2022/10/23 18:05:32;;;;;;;17.70;5.83;;;18.10;99.90;;;;;;10582690;28;20219;-80
2022/10/23 18:10:36;;;;;;;6.40;5.77;;;18.10;99.90;;;;;;10583128;28;20218;-81
2022/10/23 18:15:39;;;;;;;13.50;6.40;;;18.10;99.90;;;;;;10574334;22;20343;-80
2022/10/23 18:20:41;;;;;;;8.40;6.60;;;18.00;99.90;;;;;;10432891;28;20201;-78
2022/10/23 18:25:44;;;;;;;9.67;8.67;;;18.10;99.90;;;;;;10427469;28;20222;-79
2022/10/23 18:30:48;;;;;;;10.53;7.40;;;18.00;99.90;;;;;;10388864;28;20210;-79
2022/10/23 18:35:51;;;;;;;8.47;5.87;;;18.00;99.90;;;;;;10405567;28;20230;-79
2022/10/23 18:40:54;;;;;;;7.53;6.70;;;18.00;99.90;;;;;;10412947;28;20264;-78
2022/10/23 18:46:02;;;;;;;22.37;10.63;;;18.00;99.90;;;;;;10411957;28;20697;-78
2022/10/23 18:51:04;;;;;;;11.83;10.70;;;18.10;99.90;;;;;;10393743;28;20202;-78
2022/10/23 18:56:07;;;;;;;15.27;9.00;;;18.00;99.90;;;;;;10396129;28;20645;-79
2022/10/23 19:01:11;;;;;;;10.03;7.10;;;18.00;99.90;;;;;;10405528;28;20681;-78
2022/10/23 19:06:13;;;;;;;16.40;5.93;;;18.00;99.90;;;;;;10378692;28;21095;-79
2022/10/23 19:11:17;;;;;;;9.67;5.63;;;18.00;99.90;;;;;;10397349;28;20210;-79
2022/10/23 19:16:26;;;;;;;11.00;6.87;;;18.00;99.90;;;;;;10413395;28;20252;-78
2022/10/23 19:21:31;;;;;;;8.87;7.50;;;18.00;99.90;;;;;;10395828;28;20198;-78
2022/10/23 19:26:35;;;;;;;14.63;9.20;;;18.00;99.90;;;;;;10377363;28;20245;-78
2022/10/23 19:31:43;;;;;;;15.03;9.57;;;17.90;99.90;;;;;;10390442;28;20688;-79
2022/10/23 19:36:48;;;;;;;13.40;6.67;;;17.90;99.90;;;;;;10416961;28;20305;-79
2022/10/23 19:41:50;;;;;;;22.73;13.33;;;17.90;99.90;;;;;;10416895;28;20217;-79
2022/10/23 19:46:54;;;;;;;14.17;9.33;;;17.90;99.90;;;;;;10417236;28;20229;-79
2022/10/23 19:51:56;;;;;;;27.87;20.43;;;17.90;99.90;;;;;;10416950;28;20739;-79
2022/10/23 19:56:58;;;;;;;44.37;17.70;;;17.90;99.90;;;;;;10416194;28;20221;-78
2022/10/23 20:02:02;;;;;;;17.83;12.43;;;17.90;99.90;;;;;;10412980;28;20280;-78
2022/10/23 20:07:04;;;;;;;31.33;23.47;;;17.90;99.90;;;;;;10394342;28;20340;-78
2022/10/23 20:12:06;;;;;;;22.97;17.57;;;17.90;99.90;;;;;;10393433;28;20589;-78
2022/10/23 20:17:09;;;;;;;16.27;10.73;;;17.90;99.90;;;;;;10414230;28;20217;-76
2022/10/23 20:22:11;;;;;;;17.93;6.30;;;17.90;99.90;;;;;;10414679;28;20190;-78
2022/10/23 20:27:14;;;;;;;12.90;5.40;;;17.90;99.90;;;;;;10413989;28;20720;-77
2022/10/23 20:32:17;;;;;;;12.27;5.10;;;18.00;99.90;;;;;;10394953;28;20714;-77
2022/10/23 20:37:20;;;;;;;9.20;4.57;;;17.90;99.90;;;;;;10397701;28;20611;-78
2022/10/23 20:42:22;;;;;;;8.10;4.67;;;18.00;99.90;;;;;;10397378;28;20657;-79
2022/10/23 20:47:25;;;;;;;8.03;4.47;;;18.00;99.90;;;;;;10397315;28;20217;-79
2022/10/23 20:52:28;;;;;;;5.97;4.40;;;18.00;99.90;;;;;;10413655;28;20673;-78
2022/10/23 20:57:30;;;;;;;7.33;4.60;;;18.10;99.90;;;;;;10396382;28;20217;-79
2022/10/23 21:02:34;;;;;;;11.20;4.50;;;18.10;99.90;;;;;;10395433;28;20202;-79
2022/10/23 21:07:36;;;;;;;10.43;4.20;;;18.10;99.90;;;;;;10418184;28;20248;-78
2022/10/23 21:12:38;;;;;;;9.43;4.60;;;18.20;99.90;;;;;;10400673;28;20317;-79
2022/10/23 21:17:42;;;;;;;8.50;3.93;;;18.30;99.90;;;;;;10414741;28;20302;-77
2022/10/23 21:22:44;;;;;;;8.40;4.07;;;18.40;99.90;;;;;;10414175;28;20190;-77
2022/10/23 21:27:46;;;;;;;6.67;3.73;;;18.50;99.90;;;;;;10405655;28;20247;-77
2022/10/23 21:32:49;;;;;;;7.67;3.60;;;18.50;99.90;;;;;;10398370;28;20202;-77
2022/10/23 21:37:51;;;;;;;4.40;3.57;;;18.60;99.90;;;;;;10414021;28;20739;-78
2022/10/23 21:42:55;;;;;;;6.70;3.33;;;18.60;99.90;;;;;;10402006;28;20676;-78
2022/10/23 21:47:58;;;;;;;11.20;4.10;;;18.70;99.90;;;;;;10412417;28;20214;-77
2022/10/23 21:53:00;;;;;;;8.17;3.60;;;18.80;99.90;;;;;;10395641;28;20653;-78
2022/10/23 21:58:02;;;;;;;15.33;3.23;;;18.90;99.90;;;;;;10413593;28;20272;-79
2022/10/23 22:03:08;;;;;;;5.23;3.87;;;18.90;99.90;;;;;;10410722;28;20202;-78
2022/10/23 22:08:10;;;;;;;3.70;3.40;;;18.90;99.90;;;;;;10410495;28;20592;-79
2022/10/23 22:13:13;;;;;;;4.97;3.40;;;18.80;99.90;;;;;;10377470;28;20643;-79
2022/10/23 22:18:16;;;;;;;7.70;5.00;;;18.90;99.90;;;;;;10392620;28;20228;-78
2022/10/23 22:23:18;;;;;;;5.27;3.27;;;18.80;99.90;;;;;;10420571;28;20225;-79
2022/10/23 22:28:20;;;;;;;3.53;3.23;;;18.80;99.90;;;;;;10420619;28;20717;-79
2022/10/23 22:33:23;;;;;;;7.53;3.83;;;18.70;99.90;;;;;;10404364;28;20194;-79
2022/10/23 22:38:25;;;;;;;9.30;3.83;;;18.70;99.90;;;;;;10396475;28;20233;-77
2022/10/23 22:43:28;;;;;;;6.67;3.57;;;18.70;99.90;;;;;;10384599;28;20206;-77
2022/10/23 22:48:31;;;;;;;5.83;3.90;;;18.60;99.90;;;;;;10377975;28;20217;-79
2022/10/23 22:53:34;;;;;;;9.10;4.37;;;18.60;99.90;;;;;;10360080;28;20277;-77
2022/10/23 22:58:36;;;;;;;8.23;4.17;;;18.50;99.90;;;;;;10377015;28;20666;-80
2022/10/23 23:03:44;;;;;;;6.87;3.70;;;18.40;99.90;;;;;;10389364;28;20198;-78
2022/10/23 23:08:47;;;;;;;7.47;3.13;;;18.40;99.90;;;;;;10395379;28;20630;-78
2022/10/23 23:13:50;;;;;;;5.43;3.60;;;18.40;99.90;;;;;;10418843;28;20579;-78
2022/10/23 23:19:11;;;;;;;4.30;3.40;;;18.30;99.90;;;;;;10401063;28;20305;-79
2022/10/23 23:24:14;;;;;;;5.80;3.57;;;18.20;99.90;;;;;;10417857;28;20197;-78
2022/10/23 23:29:16;;;;;;;6.33;3.70;;;18.20;99.90;;;;;;10388001;28;20226;-79
2022/10/23 23:34:19;;;;;;;4.57;3.17;;;18.20;99.90;;;;;;10378767;28;20662;-79
2022/10/23 23:39:21;;;;;;;7.73;3.57;;;18.10;99.90;;;;;;10398983;28;20635;-79
2022/10/23 23:44:23;;;;;;;3.60;3.27;;;18.10;99.90;;;;;;10424199;28;20198;-79
2022/10/23 23:49:27;;;;;;;5.73;3.40;;;18.10;99.90;;;;;;10403291;28;20530;-79
2022/10/23 23:54:29;;;;;;;6.43;3.30;;;18.00;99.90;;;;;;10359628;28;20202;-79
2022/10/23 23:59:34;;;;;;;6.03;3.33;;;18.00;99.90;;;;;;10372767;28;20317;-77
